createdAt,value
2022-11-03T00:04:10.815Z,100946.59
2022-11-03T00:09:14.941Z,100943.41
2022-11-03T00:14:17.448Z,100932.50
2022-11-03T00:19:19.306Z,100924.22
2022-11-03T00:24:21.064Z,100920.69
2022-11-03T00:29:22.775Z,100923.16
2022-11-03T00:34:24.470Z,100923.38
2022-11-03T00:39:26.183Z,100930.25
2022-11-03T00:44:27.833Z,100910.78
2022-11-03T00:49:29.602Z,100908.38
2022-11-03T00:54:31.403Z,100901.81
2022-11-03T00:59:33.081Z,100893.06
2022-11-03T01:04:53.350Z,100887.56
2022-11-03T01:09:55.281Z,100883.16
2022-11-03T01:14:57.044Z,100874.28
2022-11-03T01:19:58.965Z,100862.06
2022-11-03T01:25:00.648Z,100855.88
2022-11-03T01:30:02.467Z,100838.34
2022-11-03T01:35:04.607Z,100839.97
2022-11-03T01:40:07.074Z,100826.69
2022-11-03T01:45:09.839Z,100821.28
2022-11-03T01:50:18.053Z,100804.31
2022-11-03T01:55:24.566Z,100794.41
2022-11-03T02:00:26.311Z,100796.06
2022-11-03T02:05:29.743Z,100786.97
2022-11-03T02:10:31.853Z,100780.03
2022-11-03T02:15:34.844Z,100770.31
2022-11-03T02:20:36.780Z,100757.94
2022-11-03T02:25:52.975Z,100756.28
2022-11-03T02:31:32.135Z,100755.63
2022-11-03T02:36:56.051Z,100757.53
2022-11-03T02:42:00.808Z,100741.25
2022-11-03T02:47:07.606Z,100731.41
2022-11-03T02:52:49.617Z,100725.78
2022-11-03T02:57:55.889Z,100709.31
2022-11-03T03:03:04.881Z,100714.66
2022-11-03T03:08:10.564Z,100716.19
2022-11-03T03:13:17.353Z,100703.22
2022-11-03T03:18:27.670Z,100699.88
2022-11-03T03:23:36.940Z,100698.09
2022-11-03T03:28:53.616Z,100689.78
2022-11-03T03:34:04.404Z,100678.53
2022-11-03T03:39:14.861Z,100681.31
2022-11-03T03:44:17.703Z,100672.44
2022-11-03T03:49:19.678Z,100668.75
2022-11-03T03:54:21.349Z,100659.00
2022-11-03T03:59:23.079Z,100656.34
2022-11-03T04:04:25.138Z,100650.25
2022-11-03T04:09:27.019Z,100643.84
2022-11-03T04:14:47.603Z,100631.84
2022-11-03T04:20:08.071Z,100619.97
2022-11-03T04:25:09.829Z,100618.91
2022-11-03T04:30:20.103Z,100616.16
2022-11-03T04:35:24.908Z,100615.38
2022-11-03T04:40:27.928Z,100602.91
2022-11-03T04:45:31.769Z,100596.72
2022-11-03T04:50:34.497Z,100584.31
2022-11-03T04:55:36.156Z,100571.56
2022-11-03T05:00:39.327Z,100564.03
2022-11-03T05:05:41.112Z,100559.38
2022-11-03T05:10:42.924Z,100562.22
2022-11-03T05:15:46.437Z,100561.34
2022-11-03T05:21:10.025Z,100554.47
2022-11-03T05:26:17.444Z,100535.75
2022-11-03T05:31:26.410Z,100525.91
2022-11-03T05:36:31.192Z,100523.16
2022-11-03T05:41:32.878Z,100512.19
2022-11-03T05:46:35.737Z,100504.50
2022-11-03T05:51:43.671Z,100499.69
2022-11-03T05:56:45.561Z,100486.38
2022-11-03T06:01:47.374Z,100490.94
2022-11-03T06:06:55.981Z,100469.91
2022-11-03T06:12:01.096Z,100464.66
2022-11-03T06:17:06.526Z,100457.94
2022-11-03T06:22:29.998Z,100452.38
2022-11-03T06:27:34.315Z,100450.19
2022-11-03T06:32:35.963Z,100453.25
2022-11-03T06:37:37.747Z,100451.16
2022-11-03T06:42:40.197Z,100437.22
2022-11-03T06:47:42.201Z,100434.47
2022-11-03T06:57:55.395Z,100421.91
2022-11-03T07:03:09.315Z,100410.78
2022-11-03T07:08:17.404Z,100411.53
2022-11-03T07:13:24.759Z,100409.25
2022-11-03T07:18:34.372Z,100406.53
2022-11-03T07:23:36.110Z,100397.69
2022-11-03T07:28:39.725Z,100385.31
2022-11-03T07:33:41.504Z,100379.44
2022-11-03T07:38:46.705Z,100386.97
2022-11-03T07:43:57.279Z,100383.50
2022-11-03T07:49:02.914Z,100372.78
2022-11-03T07:54:19.960Z,100388.19
2022-11-03T07:59:26.605Z,100384.56
2022-11-03T08:04:31.611Z,100388.81
2022-11-03T08:09:33.503Z,100380.19
2022-11-03T08:14:35.587Z,100384.78
2022-11-03T08:19:37.747Z,100363.84
2022-11-03T08:24:39.597Z,100359.47
2022-11-03T08:29:41.227Z,100345.09
2022-11-03T08:34:42.877Z,100330.56
2022-11-03T08:39:44.538Z,100322.91
2022-11-03T08:44:46.364Z,100305.19
2022-11-03T08:49:48.165Z,100293.22
2022-11-03T08:54:50.200Z,100273.78
2022-11-03T08:59:53.177Z,100267.63
2022-11-03T09:04:55.132Z,100260.28
2022-11-03T09:15:18.917Z,100238.84
2022-11-03T09:20:21.511Z,100217.19
2022-11-03T09:25:23.241Z,100196.03
2022-11-03T09:30:24.985Z,100186.84
2022-11-03T09:35:26.601Z,100175.03
2022-11-03T09:40:28.297Z,100165.44
2022-11-03T09:45:30.041Z,100152.00
2022-11-03T09:50:35.122Z,100145.59
2022-11-03T09:55:37.070Z,100129.50
2022-11-03T10:00:38.908Z,100137.59
2022-11-03T10:05:42.272Z,100129.78
2022-11-03T10:10:43.984Z,100119.75
2022-11-03T10:15:45.647Z,100102.81
2022-11-03T10:20:48.154Z,100101.19
2022-11-03T10:25:50.036Z,100090.94
2022-11-03T10:31:12.282Z,100081.25
2022-11-03T10:36:17.884Z,100067.91
2022-11-03T10:41:30.507Z,100054.47
2022-11-03T10:46:49.647Z,100051.94
2022-11-03T10:51:54.859Z,100041.69
2022-11-03T10:56:56.780Z,100036.44
2022-11-03T11:02:00.262Z,100022.06
2022-11-03T11:07:02.255Z,100011.25
2022-11-03T11:12:16.719Z,100008.94
2022-11-03T11:17:40.021Z,100002.97
2022-11-03T11:22:42.011Z,99986.53
2022-11-03T11:27:47.125Z,99965.72
2022-11-03T11:32:49.148Z,99944.38
2022-11-03T11:37:51.121Z,99935.66
2022-11-03T11:43:13.807Z,99922.22
2022-11-03T11:48:19.168Z,99910.66
2022-11-03T11:53:26.291Z,99905.56
2022-11-03T11:58:51.906Z,99902.38
2022-11-03T12:03:56.341Z,99881.28
2022-11-03T12:09:08.341Z,99874.13
2022-11-03T12:14:31.685Z,99853.44
2022-11-03T12:19:40.734Z,99853.91
2022-11-03T12:24:59.191Z,99839.63
2022-11-03T12:30:03.842Z,99820.72
2022-11-03T12:35:08.647Z,99792.94
2022-11-03T12:40:13.040Z,99783.34
2022-11-03T12:45:14.818Z,99758.38
2022-11-03T12:50:16.671Z,99741.19
2022-11-03T12:55:18.412Z,99738.03
2022-11-03T13:00:21.003Z,99715.84
2022-11-03T13:05:25.889Z,99709.78
2022-11-03T13:10:28.017Z,99702.91
2022-11-03T13:15:29.743Z,99702.38
2022-11-03T13:20:34.752Z,99676.59
2022-11-03T13:25:36.879Z,99660.97
2022-11-03T13:30:40.411Z,99654.06
2022-11-03T13:35:42.149Z,99643.88
2022-11-03T13:40:57.132Z,99643.88
2022-11-03T13:46:02.684Z,99641.53
2022-11-03T13:51:04.577Z,99627.97
2022-11-03T13:56:08.693Z,99648.78
2022-11-03T14:01:12.232Z,99648.78
2022-11-03T14:06:14.148Z,99644.44
2022-11-03T14:11:36.058Z,99651.88
2022-11-03T14:16:38.189Z,99640.69
2022-11-03T14:21:42.883Z,99637.06
2022-11-03T14:26:44.938Z,99621.66
2022-11-03T14:31:46.963Z,99606.66
2022-11-03T14:36:48.781Z,99590.03
2022-11-03T14:42:05.645Z,99579.72
2022-11-03T14:47:09.856Z,99588.13
2022-11-03T14:52:12.428Z,99567.75
2022-11-03T14:57:14.153Z,99553.69
2022-11-03T15:02:15.898Z,99550.28
2022-11-03T15:07:18.052Z,99538.16
2022-11-03T15:12:19.828Z,99528.59
2022-11-03T15:17:21.574Z,99521.81
2022-11-03T15:27:45.436Z,99488.00
2022-11-03T15:32:47.177Z,99461.47
2022-11-03T15:37:49.209Z,99460.75
2022-11-03T15:42:51.183Z,99448.34
2022-11-03T15:47:58.135Z,99438.56
2022-11-03T15:53:00.437Z,99430.56
2022-11-03T15:58:02.134Z,99423.28
2022-11-03T16:03:04.175Z,99431.88
2022-11-03T16:08:06.654Z,99427.28
2022-11-03T16:13:08.745Z,99421.59
2022-11-03T16:18:11.096Z,99428.75
2022-11-03T16:23:14.002Z,99432.38
2022-11-03T16:28:16.273Z,99427.91
2022-11-03T16:33:17.979Z,99426.19
2022-11-03T16:38:20.422Z,99418.69
2022-11-03T16:43:22.386Z,99406.69
2022-11-03T16:48:24.336Z,99397.38
2022-11-03T16:53:26.012Z,99399.78
2022-11-03T16:58:28.003Z,99391.81
2022-11-03T17:03:29.742Z,99386.81
2022-11-03T17:08:51.732Z,99393.69
2022-11-03T17:13:53.112Z,99397.38
2022-11-03T17:18:54.751Z,99384.19
2022-11-03T17:23:56.672Z,99381.41
2022-11-03T17:28:58.800Z,99381.13
2022-11-03T17:34:01.269Z,99370.84
2022-11-03T17:39:04.350Z,99377.03
2022-11-03T17:44:10.916Z,99367.13
2022-11-03T17:49:12.598Z,99368.94
2022-11-03T17:54:17.103Z,99363.00
2022-11-03T17:59:19.131Z,99366.78
2022-11-03T18:04:20.826Z,99364.41
2022-11-03T18:09:22.571Z,99372.91
2022-11-03T18:14:26.403Z,99380.06
2022-11-03T18:19:28.900Z,99376.28
2022-11-03T18:24:30.585Z,99388.19
2022-11-03T18:29:32.467Z,99395.34
2022-11-03T18:34:34.824Z,99380.06
2022-11-03T18:39:37.152Z,99381.88
2022-11-03T18:44:38.810Z,99370.97
2022-11-03T18:49:40.740Z,99374.25
2022-11-03T18:54:47.620Z,99360.66
2022-11-03T18:59:49.867Z,99357.88
2022-11-03T19:04:52.191Z,99356.06
2022-11-03T19:09:55.112Z,99355.22
2022-11-03T19:14:56.825Z,99363.34
2022-11-03T19:19:58.580Z,99365.63
2022-11-03T19:25:00.285Z,99378.63
2022-11-03T19:30:03.934Z,99372.41
2022-11-03T19:35:14.464Z,99361.41
2022-11-03T19:40:18.765Z,99355.47
2022-11-03T19:45:21.236Z,99341.16
2022-11-03T19:50:31.861Z,99327.59
2022-11-03T19:55:37.144Z,99323.09
2022-11-03T20:00:39.006Z,99324.09
2022-11-03T20:05:46.582Z,99323.56
2022-11-03T20:10:50.925Z,99326.03
2022-11-03T20:15:58.927Z,99334.16
2022-11-03T20:21:01.232Z,99334.16
2022-11-03T20:26:03.543Z,99339.00
2022-11-03T20:31:07.536Z,99337.03
2022-11-03T20:36:18.116Z,99351.69
2022-11-03T20:41:20.092Z,99361.41
2022-11-03T20:46:27.563Z,99359.25
2022-11-03T20:51:35.148Z,99367.97
2022-11-03T20:56:36.798Z,99374.50
2022-11-03T21:01:39.693Z,99395.56
2022-11-03T21:06:41.433Z,99399.56
2022-11-03T21:11:43.863Z,99404.41
2022-11-03T21:17:21.184Z,99420.28
2022-11-03T21:27:51.061Z,99450.69
2022-11-03T21:32:52.921Z,99445.00
2022-11-03T21:37:54.603Z,99466.06
2022-11-03T21:43:15.145Z,99478.69
2022-11-03T21:48:35.398Z,99478.31
2022-11-03T21:53:37.051Z,99477.47
2022-11-03T21:58:38.965Z,99491.78
2022-11-03T22:03:40.755Z,99510.28
2022-11-03T22:08:44.030Z,99527.16
2022-11-03T22:13:45.850Z,99528.47
2022-11-03T22:18:47.480Z,99537.81
2022-11-03T22:24:07.957Z,99550.41
2022-11-03T22:29:27.980Z,99556.81
2022-11-03T22:34:48.375Z,99568.34
2022-11-03T22:40:08.768Z,99577.28
2022-11-03T22:45:29.138Z,99570.03
2022-11-03T22:50:31.070Z,99563.38
2022-11-03T22:55:32.749Z,99557.69
2022-11-03T23:00:34.583Z,99556.34
2022-11-03T23:05:36.339Z,99551.47
2022-11-03T23:10:38.150Z,99558.53
2022-11-03T23:15:43.941Z,99573.66
2022-11-03T23:21:04.695Z,99579.00
2022-11-03T23:26:09.126Z,99593.91
2022-11-03T23:31:12.471Z,99596.94
2022-11-03T23:36:16.073Z,99609.38
2022-11-03T23:41:19.171Z,99610.97
2022-11-03T23:46:41.920Z,99611.72
2022-11-03T23:51:43.991Z,99612.78
2022-11-03T23:57:05.761Z,99625.63
